Terminal Aerodrome Forecast
Issued by NWS

Home | Current Version | Previous Version | Text Only | Print | Product List | Glossary On
Versions: 1 2 3 4 5 6 7 8 9 10 11 12 13 14 15
392
FTPQ31 PGUM 250526
TAFKWA
TAF
PKWA 250526Z 2506/2606 07013KT P6SM VCSH FEW018 SCT025=

USA.gov is the U.S. government's official web portal to all federal, state and local government web resources and services.